Time;durP1;ratioP1;P1;durP2;ratioP2;P2;SDS_P1;SDS_P2;PMS_P1;PMS_P2;Temp;Humidity;BMP_temperature;BMP_pressure;BME280_temperature;BME280_humidity;BME280_pressure;Samples;Min_cycle;Max_cycle;Signal;HPM_P1;HPM_P2
2022/03/15 00:02:16;;;;;;;13.20;7.85;;;0.90;99.90;;;;;;5052742;28;20057;-63
2022/03/15 00:04:41;;;;;;;13.95;7.47;;;1.00;99.90;;;;;;5054201;28;20049;-62
2022/03/15 00:07:13;;;;;;;18.63;8.50;;;0.90;99.90;;;;;;5052237;28;20455;-62
2022/03/15 00:09:38;;;;;;;16.02;8.23;;;0.90;99.90;;;;;;5053684;28;20025;-61
2022/03/15 00:12:07;;;;;;;16.58;7.85;;;0.80;99.90;;;;;;5052245;28;20389;-61
2022/03/15 00:14:36;;;;;;;15.95;8.10;;;0.80;99.90;;;;;;5053631;28;20059;-61
2022/03/15 00:17:04;;;;;;;18.53;7.90;;;0.80;99.90;;;;;;5053607;28;20025;-62
2022/03/15 00:19:30;;;;;;;17.90;7.90;;;0.80;99.90;;;;;;5053551;28;20252;-62
2022/03/15 00:24:39;;;;;;;17.13;7.53;;;0.70;99.90;;;;;;5053562;28;20488;-61
2022/03/15 00:27:06;;;;;;;16.98;8.40;;;0.70;99.90;;;;;;5055690;28;20025;-61
2022/03/15 00:29:32;;;;;;;17.38;7.93;;;0.70;99.90;;;;;;5056265;28;20052;-61
2022/03/15 00:31:58;;;;;;;14.75;7.72;;;0.70;99.90;;;;;;5057408;28;20384;-61
2022/03/15 00:34:23;;;;;;;15.38;7.15;;;0.70;99.90;;;;;;5056370;28;20029;-62
2022/03/15 00:36:49;;;;;;;22.00;8.02;;;0.70;99.90;;;;;;5056143;28;20087;-61
2022/03/15 00:39:16;;;;;;;14.32;7.40;;;0.70;99.90;;;;;;5057351;28;20519;-61
2022/03/15 00:41:42;;;;;;;15.98;7.70;;;0.80;99.90;;;;;;5057215;28;20029;-62
2022/03/15 00:44:08;;;;;;;13.88;8.15;;;2.60;99.90;;;;;;5057425;28;20029;-64
2022/03/15 00:46:52;;;;;;;19.27;7.72;;;1.20;99.90;;;;;;5057850;28;20086;-61
2022/03/15 00:49:18;;;;;;;15.15;7.15;;;0.60;99.90;;;;;;5056391;28;20035;-61
2022/03/15 00:51:44;;;;;;;15.07;7.97;;;0.60;99.90;;;;;;5057200;28;20485;-62
2022/03/15 00:54:10;;;;;;;15.93;8.20;;;0.50;99.90;;;;;;5057118;28;20100;-61
2022/03/15 00:56:36;;;;;;;16.58;6.78;;;2.10;99.90;;;;;;5056747;28;20025;-61
2022/03/15 00:59:02;;;;;;;13.30;7.35;;;0.70;99.90;;;;;;5057060;28;20051;-62
2022/03/15 01:01:27;;;;;;;15.57;7.72;;;0.90;99.90;;;;;;5055528;28;20027;-61
2022/03/15 01:03:53;;;;;;;17.85;7.53;;;0.50;99.90;;;;;;5056886;28;20435;-61
2022/03/15 01:06:19;;;;;;;12.65;6.93;;;0.50;99.90;;;;;;5056674;28;20029;-62
2022/03/15 01:08:44;;;;;;;16.42;7.65;;;0.60;99.90;;;;;;5056865;28;20021;-61
2022/03/15 01:11:10;;;;;;;13.70;8.00;;;0.40;99.90;;;;;;5056766;28;20036;-61
2022/03/15 01:13:36;;;;;;;13.82;7.20;;;2.50;99.90;;;;;;5056499;28;20036;-61
2022/03/15 01:16:01;;;;;;;14.80;7.75;;;1.00;99.90;;;;;;5056363;28;20025;-61
2022/03/15 01:18:27;;;;;;;13.25;7.55;;;0.40;99.90;;;;;;5056691;28;20377;-61
2022/03/15 01:20:53;;;;;;;15.82;8.07;;;2.80;99.90;;;;;;5056697;28;20021;-61
2022/03/15 01:23:19;;;;;;;15.65;8.02;;;0.80;99.90;;;;;;5056940;28;20044;-64
2022/03/15 01:25:44;;;;;;;14.15;7.35;;;0.50;99.90;;;;;;5057108;28;20029;-62
2022/03/15 01:28:11;;;;;;;18.02;7.78;;;0.40;99.90;;;;;;5055983;28;20025;-62
2022/03/15 01:30:36;;;;;;;16.55;8.45;;;0.30;99.90;;;;;;5057367;28;20032;-71
2022/03/15 01:33:02;;;;;;;16.17;7.82;;;0.40;99.90;;;;;;5056978;28;20036;-62
2022/03/15 01:35:28;;;;;;;14.40;7.65;;;0.40;99.90;;;;;;5056801;28;20032;-62
2022/03/15 01:37:54;;;;;;;12.88;7.30;;;0.40;99.90;;;;;;5055384;28;20028;-69
2022/03/15 01:40:21;;;;;;;18.50;8.20;;;0.40;99.90;;;;;;5055467;28;20032;-62
2022/03/15 01:42:47;;;;;;;14.15;7.53;;;0.40;99.90;;;;;;5056482;28;20111;-64
2022/03/15 01:45:12;;;;;;;14.25;7.22;;;0.40;99.90;;;;;;5055035;28;20469;-62
2022/03/15 01:47:38;;;;;;;14.82;6.97;;;0.40;99.90;;;;;;5055019;28;20457;-61
2022/03/15 01:50:04;;;;;;;15.32;6.85;;;0.60;99.90;;;;;;5056079;28;20108;-67
2022/03/15 01:52:30;;;;;;;15.27;6.97;;;0.40;99.90;;;;;;5056110;28;20025;-61
2022/03/15 01:54:56;;;;;;;14.85;7.32;;;0.30;99.90;;;;;;5055796;28;20043;-61
2022/03/15 01:57:23;;;;;;;13.25;7.15;;;0.30;99.90;;;;;;5056188;28;20151;-61
2022/03/15 01:59:49;;;;;;;15.48;7.65;;;0.30;99.90;;;;;;5054749;28;20120;-61
2022/03/15 02:02:14;;;;;;;10.40;6.57;;;0.50;99.90;;;;;;5056149;28;20432;-62
2022/03/15 02:04:40;;;;;;;16.15;8.23;;;0.30;99.90;;;;;;5056757;28;20159;-62
2022/03/15 02:07:13;;;;;;;16.55;7.25;;;0.30;99.90;;;;;;5056494;28;20045;-71
2022/03/15 02:09:57;;;;;;;14.07;7.35;;;0.30;99.90;;;;;;5056732;28;20047;-66
2022/03/15 02:12:23;;;;;;;14.90;8.00;;;0.30;99.90;;;;;;5056172;28;20388;-62
2022/03/15 02:14:49;;;;;;;13.82;7.20;;;0.30;99.90;;;;;;5056897;28;20032;-63
2022/03/15 02:17:14;;;;;;;19.52;7.57;;;0.30;99.90;;;;;;5056447;28;20025;-61
2022/03/15 02:19:43;;;;;;;14.77;6.25;;;0.30;99.90;;;;;;5056529;28;20484;-67
2022/03/15 02:22:08;;;;;;;8.52;5.10;;;0.30;99.90;;;;;;5056102;28;20083;-63
2022/03/15 02:24:35;;;;;;;16.65;7.53;;;0.20;99.90;;;;;;5056485;28;20029;-67
2022/03/15 02:27:01;;;;;;;10.75;6.45;;;0.20;99.90;;;;;;5056097;28;20036;-66
2022/03/15 02:29:27;;;;;;;12.20;6.68;;;1.30;99.90;;;;;;5054420;28;20376;-63
2022/03/15 02:31:53;;;;;;;14.52;6.95;;;2.30;99.90;;;;;;5056019;28;20112;-67
2022/03/15 02:34:19;;;;;;;16.13;6.97;;;0.30;99.90;;;;;;5054089;28;20032;-62
2022/03/15 02:36:45;;;;;;;15.00;7.55;;;0.20;99.90;;;;;;5055266;28;20024;-64
2022/03/15 02:39:11;;;;;;;13.02;7.53;;;0.20;99.90;;;;;;5053986;28;20025;-63
2022/03/15 02:41:37;;;;;;;14.50;7.00;;;0.30;99.90;;;;;;5054721;28;20390;-62
2022/03/15 02:44:04;;;;;;;14.27;7.35;;;0.20;99.90;;;;;;5054783;28;20025;-62
2022/03/15 02:46:30;;;;;;;14.82;7.25;;;0.20;99.90;;;;;;5054971;28;20028;-61
2022/03/15 02:49:00;;;;;;;13.70;6.85;;;0.20;99.90;;;;;;5052948;28;20029;-62
2022/03/15 02:51:26;;;;;;;10.30;6.25;;;0.20;99.90;;;;;;5053570;28;20381;-61
2022/03/15 02:53:54;;;;;;;12.15;6.70;;;0.20;99.90;;;;;;5054838;28;20029;-62
2022/03/15 02:56:21;;;;;;;10.23;6.30;;;0.10;99.90;;;;;;5054827;28;20100;-64
2022/03/15 02:58:46;;;;;;;14.80;7.20;;;0.10;99.90;;;;;;5053613;28;20029;-61
2022/03/15 03:01:12;;;;;;;14.13;5.97;;;0.60;99.90;;;;;;5054345;28;20051;-61
2022/03/15 03:03:38;;;;;;;9.32;6.70;;;0.10;99.90;;;;;;5053413;28;20052;-61
2022/03/15 03:06:04;;;;;;;11.75;6.55;;;0.10;99.90;;;;;;5054759;28;20021;-63
2022/03/15 03:08:30;;;;;;;12.07;6.45;;;0.10;99.90;;;;;;5054138;28;20060;-61
2022/03/15 03:10:57;;;;;;;12.50;6.95;;;0.10;99.90;;;;;;5053266;28;20025;-62
2022/03/15 03:13:26;;;;;;;11.15;5.88;;;0.00;99.90;;;;;;5054217;28;20043;-61
2022/03/15 03:15:58;;;;;;;13.73;6.13;;;0.00;99.90;;;;;;5054374;28;20056;-61
2022/03/15 03:18:33;;;;;;;11.23;6.60;;;0.00;99.90;;;;;;5053597;28;20033;-61
2022/03/15 03:21:04;;;;;;;14.63;5.85;;;0.00;99.90;;;;;;5054425;28;20025;-61
2022/03/15 03:23:34;;;;;;;16.60;6.00;;;0.60;99.90;;;;;;5054434;28;20120;-61
2022/03/15 03:26:01;;;;;;;11.75;6.47;;;0.00;99.90;;;;;;5054487;28;20021;-61
2022/03/15 03:28:36;;;;;;;14.38;5.55;;;0.00;99.90;;;;;;5052920;28;20051;-62
2022/03/15 03:31:04;;;;;;;11.07;6.85;;;2.10;99.90;;;;;;5054342;28;20453;-61
2022/03/15 03:33:30;;;;;;;11.88;5.85;;;0.00;99.90;;;;;;5054166;28;20115;-62
2022/03/15 03:35:56;;;;;;;12.98;7.03;;;0.00;99.90;;;;;;5053818;28;20025;-61
2022/03/15 03:38:22;;;;;;;16.65;7.15;;;0.00;99.90;;;;;;5054092;28;20021;-61
2022/03/15 03:40:48;;;;;;;10.68;6.28;;;0.00;99.90;;;;;;5053077;28;20035;-61
2022/03/15 03:43:14;;;;;;;16.05;6.90;;;0.00;99.90;;;;;;5052578;28;20029;-61
2022/03/15 03:45:40;;;;;;;12.93;6.55;;;0.00;99.90;;;;;;5053947;28;20032;-61
2022/03/15 03:48:07;;;;;;;16.40;6.80;;;0.00;99.90;;;;;;5054105;28;20477;-61
2022/03/15 03:50:35;;;;;;;11.52;6.38;;;0.00;99.90;;;;;;5053882;28;20071;-61
2022/03/15 03:53:01;;;;;;;13.20;6.40;;;0.00;99.90;;;;;;5052508;28;20035;-62
2022/03/15 03:55:27;;;;;;;14.35;6.53;;;0.00;99.90;;;;;;5052613;28;20420;-61
2022/03/15 03:57:53;;;;;;;9.68;6.10;;;0.00;99.90;;;;;;5054107;28;20027;-61
2022/03/15 04:00:18;;;;;;;13.35;6.35;;;0.00;99.90;;;;;;5052425;28;20025;-61
2022/03/15 04:02:44;;;;;;;12.50;5.72;;;0.00;99.90;;;;;;5053646;28;20059;-61
2022/03/15 04:05:10;;;;;;;11.13;5.88;;;0.90;99.90;;;;;;5054096;28;20033;-61
2022/03/15 04:07:41;;;;;;;12.27;6.20;;;-0.10;99.90;;;;;;5052275;28;20072;-61
2022/03/15 04:10:08;;;;;;;13.52;6.00;;;-0.10;99.90;;;;;;5052997;28;20346;-61
2022/03/15 04:12:38;;;;;;;12.85;6.10;;;-0.10;99.90;;;;;;5053670;28;20037;-61
2022/03/15 04:15:05;;;;;;;10.52;6.18;;;0.60;99.90;;;;;;5052427;28;20031;-61
2022/03/15 04:17:30;;;;;;;12.65;6.38;;;-0.10;99.90;;;;;;5053344;28;20021;-61
2022/03/15 04:19:56;;;;;;;15.05;6.45;;;0.00;99.90;;;;;;5052413;28;20170;-62
2022/03/15 04:22:22;;;;;;;17.35;6.35;;;0.00;99.90;;;;;;5053415;28;20033;-61
2022/03/15 04:24:48;;;;;;;11.13;6.45;;;0.00;99.90;;;;;;5053536;28;20028;-61
2022/03/15 04:27:15;;;;;;;13.68;6.10;;;0.00;99.90;;;;;;5053523;28;20025;-61
2022/03/15 04:29:42;;;;;;;13.95;6.28;;;0.00;99.90;;;;;;5053151;28;20525;-61
2022/03/15 04:32:08;;;;;;;12.80;6.85;;;-0.10;99.90;;;;;;5053979;28;20112;-61
2022/03/15 04:34:34;;;;;;;11.43;5.95;;;0.00;99.90;;;;;;5053548;28;20017;-61
2022/03/15 04:36:59;;;;;;;20.92;7.00;;;-0.10;99.90;;;;;;5052178;28;20453;-61
2022/03/15 04:39:25;;;;;;;12.50;6.53;;;0.00;99.90;;;;;;5053420;28;20064;-61
2022/03/15 04:41:51;;;;;;;12.10;6.55;;;1.10;99.90;;;;;;5053004;28;20090;-61
2022/03/15 04:44:17;;;;;;;17.13;6.68;;;0.00;99.90;;;;;;5053435;28;20025;-62
2022/03/15 04:46:43;;;;;;;12.43;6.55;;;0.00;99.90;;;;;;5053023;28;20021;-61
2022/03/15 04:49:09;;;;;;;12.02;6.97;;;0.00;99.90;;;;;;5053552;28;20078;-62
2022/03/15 04:51:35;;;;;;;16.08;7.25;;;0.00;99.90;;;;;;5053219;28;20074;-62
2022/03/15 04:54:01;;;;;;;13.35;7.47;;;0.00;99.90;;;;;;5053586;28;20025;-62
2022/03/15 04:56:26;;;;;;;17.33;6.95;;;0.00;99.90;;;;;;5052929;28;20036;-62
2022/03/15 04:58:52;;;;;;;16.90;7.43;;;0.00;99.90;;;;;;5053157;28;20025;-61
2022/03/15 05:01:18;;;;;;;14.80;7.18;;;0.00;99.90;;;;;;5053236;28;20052;-61
2022/03/15 05:03:44;;;;;;;11.45;6.85;;;0.00;99.90;;;;;;5051865;28;20061;-61
2022/03/15 05:06:09;;;;;;;15.15;7.70;;;0.00;99.90;;;;;;5053115;28;20035;-61
2022/03/15 05:08:35;;;;;;;19.02;7.32;;;0.30;99.90;;;;;;5053358;28;20060;-61
2022/03/15 05:11:06;;;;;;;14.68;7.78;;;0.00;99.90;;;;;;5051856;28;20025;-61
2022/03/15 05:13:44;;;;;;;17.67;7.70;;;0.10;99.90;;;;;;5054517;28;20029;-60
2022/03/15 05:16:15;;;;;;;14.52;7.60;;;0.10;99.90;;;;;;5055841;28;20025;-61
2022/03/15 05:18:41;;;;;;;13.18;7.63;;;0.10;99.90;;;;;;5055638;28;20451;-61
2022/03/15 05:21:08;;;;;;;16.05;8.40;;;0.20;99.90;;;;;;5056724;28;20053;-61
2022/03/15 05:23:34;;;;;;;15.27;8.07;;;0.30;99.90;;;;;;5056519;28;20059;-61
2022/03/15 05:26:00;;;;;;;15.45;8.68;;;0.30;99.90;;;;;;5056986;28;20524;-61
2022/03/15 05:28:27;;;;;;;15.38;7.78;;;0.30;99.90;;;;;;5056193;28;20025;-62
2022/03/15 05:30:53;;;;;;;14.23;7.70;;;1.50;99.90;;;;;;5055073;28;20029;-61
2022/03/15 05:33:19;;;;;;;20.63;7.97;;;0.40;99.90;;;;;;5056638;28;20074;-63
2022/03/15 05:35:44;;;;;;;16.23;8.40;;;0.50;99.90;;;;;;5056328;28;20025;-62
2022/03/15 05:38:10;;;;;;;19.25;9.30;;;0.50;99.90;;;;;;5056224;28;20071;-61
2022/03/15 05:40:37;;;;;;;19.42;10.48;;;0.60;99.90;;;;;;5054778;28;20063;-62
2022/03/15 05:43:03;;;;;;;17.73;9.30;;;0.70;99.90;;;;;;5055674;28;20485;-62
2022/03/15 05:45:29;;;;;;;20.98;9.63;;;0.80;99.90;;;;;;5054846;28;20049;-61
2022/03/15 05:47:55;;;;;;;24.58;10.52;;;0.90;99.90;;;;;;5056307;28;20096;-62
2022/03/15 05:50:21;;;;;;;26.95;11.38;;;1.10;99.90;;;;;;5055696;28;20032;-62
2022/03/15 05:52:47;;;;;;;28.05;12.73;;;1.60;99.90;;;;;;5055991;28;20035;-62
2022/03/15 05:55:13;;;;;;;30.52;15.40;;;1.20;99.90;;;;;;5054646;28;20025;-61
2022/03/15 05:57:39;;;;;;;25.33;13.55;;;1.40;99.90;;;;;;5055585;28;20198;-62
2022/03/15 06:00:07;;;;;;;20.38;12.63;;;1.40;99.90;;;;;;5054781;28;20356;-62
2022/03/15 06:02:33;;;;;;;25.35;12.88;;;1.50;99.90;;;;;;5055896;28;20044;-61
2022/03/15 06:04:59;;;;;;;23.88;10.50;;;1.60;99.90;;;;;;5055487;28;20033;-61
2022/03/15 06:07:27;;;;;;;18.80;9.05;;;1.60;99.90;;;;;;5054254;28;20049;-61
2022/03/15 06:09:53;;;;;;;19.75;10.07;;;1.80;99.90;;;;;;5055917;28;20035;-61
2022/03/15 06:12:20;;;;;;;21.98;9.82;;;1.90;99.90;;;;;;5055625;28;20033;-62
2022/03/15 06:14:46;;;;;;;17.95;8.77;;;2.10;99.90;;;;;;5055494;28;20021;-62
2022/03/15 06:17:12;;;;;;;23.88;10.13;;;2.20;99.90;;;;;;5055483;28;20025;-61
2022/03/15 06:19:38;;;;;;;19.23;10.98;;;2.50;99.90;;;;;;5055426;28;20350;-62
2022/03/15 06:22:04;;;;;;;21.17;10.02;;;2.50;99.90;;;;;;5054038;28;20465;-61
2022/03/15 06:24:30;;;;;;;20.27;10.13;;;2.70;99.90;;;;;;5054195;28;20067;-62
2022/03/15 06:26:57;;;;;;;19.58;9.07;;;2.80;99.90;;;;;;5054084;28;20381;-62
2022/03/15 06:29:22;;;;;;;22.55;10.13;;;3.00;99.90;;;;;;5055290;28;20111;-61
2022/03/15 06:31:48;;;;;;;17.50;10.07;;;3.30;99.90;;;;;;5054947;28;20555;-62
2022/03/15 06:34:14;;;;;;;21.23;10.07;;;3.30;99.90;;;;;;5054330;28;20025;-62
2022/03/15 06:36:41;;;;;;;19.05;10.00;;;3.40;99.90;;;;;;5055290;28;20389;-62
2022/03/15 06:39:07;;;;;;;20.58;9.80;;;3.60;99.90;;;;;;5055268;28;20021;-62
2022/03/15 06:41:38;;;;;;;18.85;9.88;;;3.80;99.90;;;;;;5053653;28;20108;-62
2022/03/15 06:44:05;;;;;;;23.88;11.20;;;4.00;99.90;;;;;;5054071;28;20029;-64
2022/03/15 06:46:31;;;;;;;16.05;10.02;;;4.00;99.90;;;;;;5053833;28;20028;-62
2022/03/15 06:48:57;;;;;;;20.88;11.65;;;4.10;99.90;;;;;;5053538;28;20511;-62
2022/03/15 06:51:23;;;;;;;28.98;10.82;;;4.20;99.90;;;;;;5053506;28;20025;-62
2022/03/15 06:53:49;;;;;;;19.58;11.07;;;4.20;99.90;;;;;;5054568;28;20552;-62
2022/03/15 06:56:14;;;;;;;17.33;11.02;;;4.60;99.90;;;;;;5055132;28;20025;-62
2022/03/15 06:58:40;;;;;;;22.33;11.13;;;4.50;99.90;;;;;;5054755;28;20021;-62
2022/03/15 07:01:06;;;;;;;19.05;10.05;;;4.60;99.90;;;;;;5054735;28;20021;-62
2022/03/15 07:03:31;;;;;;;19.90;10.88;;;4.70;99.90;;;;;;5054265;28;20078;-62
2022/03/15 07:05:57;;;;;;;20.65;11.02;;;4.80;99.90;;;;;;5054293;28;20021;-62
2022/03/15 07:08:23;;;;;;;22.48;12.00;;;4.90;99.90;;;;;;5054892;28;20074;-62
2022/03/15 07:10:48;;;;;;;22.83;11.57;;;5.10;99.90;;;;;;5054571;28;20028;-62
2022/03/15 07:13:14;;;;;;;22.83;11.45;;;5.20;99.90;;;;;;5054511;28;20112;-62
2022/03/15 07:15:40;;;;;;;21.88;11.05;;;5.30;99.90;;;;;;5053258;28;20091;-62
2022/03/15 07:18:06;;;;;;;20.17;10.52;;;5.40;99.90;;;;;;5054179;28;20472;-62
2022/03/15 07:20:32;;;;;;;19.70;10.98;;;5.70;99.90;;;;;;5054348;28;20060;-62
2022/03/15 07:22:57;;;;;;;22.63;10.68;;;5.80;99.90;;;;;;5052963;28;20481;-62
2022/03/15 07:25:23;;;;;;;21.10;10.40;;;5.90;99.90;;;;;;5054734;28;20040;-61
2022/03/15 07:27:49;;;;;;;22.25;11.13;;;6.00;99.90;;;;;;5054441;28;20025;-62
2022/03/15 07:30:15;;;;;;;23.98;10.98;;;6.00;99.90;;;;;;5054335;28;20437;-62
2022/03/15 07:32:41;;;;;;;20.60;11.00;;;6.10;99.90;;;;;;5052833;28;20033;-62
2022/03/15 07:35:08;;;;;;;24.50;12.27;;;6.10;99.90;;;;;;5054232;28;20029;-62
2022/03/15 07:37:34;;;;;;;20.10;10.73;;;6.20;99.90;;;;;;5054238;28;20029;-62
2022/03/15 07:40:00;;;;;;;22.65;10.77;;;6.20;99.90;;;;;;5053709;28;20358;-62
2022/03/15 07:42:26;;;;;;;20.70;12.02;;;6.20;99.90;;;;;;5053927;28;20037;-62
2022/03/15 07:44:52;;;;;;;20.35;10.13;;;6.30;99.90;;;;;;5053946;28;20017;-62
2022/03/15 07:47:17;;;;;;;21.27;11.05;;;6.40;99.80;;;;;;5053532;28;20028;-62
2022/03/15 07:49:43;;;;;;;19.60;10.40;;;6.40;99.40;;;;;;5053975;28;20025;-63
2022/03/15 07:52:10;;;;;;;19.40;11.30;;;6.50;99.50;;;;;;5052517;28;20043;-62
2022/03/15 07:54:36;;;;;;;19.08;9.93;;;6.70;98.80;;;;;;5052601;28;20021;-62
2022/03/15 07:57:02;;;;;;;15.27;9.85;;;6.90;98.70;;;;;;5053810;28;20064;-62
2022/03/15 07:59:28;;;;;;;21.38;10.75;;;7.00;98.00;;;;;;5052469;28;20036;-62
2022/03/15 08:01:54;;;;;;;22.63;10.23;;;7.20;97.40;;;;;;5053663;28;20029;-62
2022/03/15 08:04:20;;;;;;;18.48;11.15;;;7.30;97.40;;;;;;5052453;28;20060;-63
2022/03/15 08:06:46;;;;;;;20.77;10.00;;;7.40;96.70;;;;;;5053806;28;20076;-62
2022/03/15 08:09:13;;;;;;;15.50;10.23;;;7.40;96.60;;;;;;5052334;28;20029;-62
2022/03/15 08:11:41;;;;;;;16.48;9.75;;;7.60;96.50;;;;;;5054040;28;20057;-62
2022/03/15 08:14:08;;;;;;;25.02;10.57;;;7.80;96.00;;;;;;5053614;28;20029;-61
2022/03/15 08:16:34;;;;;;;15.98;9.55;;;8.00;95.50;;;;;;5053918;28;20025;-61
2022/03/15 08:19:00;;;;;;;15.75;9.77;;;8.20;94.40;;;;;;5052368;28;20032;-62
2022/03/15 08:21:26;;;;;;;18.60;10.07;;;8.20;94.40;;;;;;5053619;28;20025;-62
2022/03/15 08:23:52;;;;;;;17.85;9.95;;;8.20;93.90;;;;;;5053629;28;20041;-61
2022/03/15 08:26:18;;;;;;;19.90;10.05;;;8.40;93.70;;;;;;5053522;28;20104;-62
2022/03/15 08:28:45;;;;;;;20.40;10.27;;;8.30;93.50;;;;;;5053280;28;20508;-62
2022/03/15 08:31:11;;;;;;;19.05;11.60;;;8.40;93.50;;;;;;5052655;28;20127;-61
2022/03/15 08:33:36;;;;;;;17.67;10.43;;;8.30;93.70;;;;;;5053410;28;20103;-62
2022/03/15 08:36:02;;;;;;;23.23;11.13;;;8.40;93.80;;;;;;5053119;28;20119;-62
2022/03/15 08:38:29;;;;;;;15.88;11.02;;;8.20;93.90;;;;;;5053553;28;20025;-62
2022/03/15 08:40:55;;;;;;;22.42;10.18;;;8.40;93.80;;;;;;5053458;28;20024;-62
2022/03/15 08:43:20;;;;;;;22.02;10.32;;;8.60;93.30;;;;;;5053239;28;20044;-63
2022/03/15 08:45:46;;;;;;;17.58;10.18;;;9.00;92.70;;;;;;5053257;28;20029;-62
2022/03/15 08:48:12;;;;;;;20.98;10.25;;;9.20;91.50;;;;;;5055778;28;20060;-62
2022/03/15 08:50:38;;;;;;;20.05;10.50;;;9.40;90.40;;;;;;5055904;28;20102;-62
2022/03/15 08:53:04;;;;;;;14.65;9.85;;;9.60;89.80;;;;;;5057198;28;20116;-61
2022/03/15 08:55:30;;;;;;;18.08;10.27;;;9.80;88.90;;;;;;5056823;28;20033;-61
2022/03/15 08:57:56;;;;;;;21.38;11.13;;;10.20;84.80;;;;;;5055689;28;20060;-61
2022/03/15 09:00:22;;;;;;;17.50;10.30;;;10.30;83.00;;;;;;5056945;28;20075;-61
2022/03/15 09:02:47;;;;;;;17.63;10.15;;;10.40;81.80;;;;;;5056833;28;20036;-62
2022/03/15 09:05:16;;;;;;;19.33;10.70;;;10.70;80.10;;;;;;5056873;28;20025;-62
2022/03/15 09:07:42;;;;;;;17.02;10.88;;;10.90;77.20;;;;;;5055242;28;20087;-61
2022/03/15 09:10:08;;;;;;;15.95;9.60;;;11.20;76.10;;;;;;5055559;28;20033;-62
2022/03/15 09:12:34;;;;;;;16.70;10.20;;;11.50;73.10;;;;;;5056721;28;20107;-62
2022/03/15 09:15:20;;;;;;;20.17;10.05;;;11.80;70.50;;;;;;5056313;28;20489;-62
2022/03/15 09:17:46;;;;;;;19.92;10.35;;;12.00;69.50;;;;;;5056859;28;20032;-62
2022/03/15 09:20:12;;;;;;;18.85;10.60;;;12.10;66.80;;;;;;5056874;28;20107;-62
2022/03/15 09:22:38;;;;;;;18.83;10.20;;;12.10;67.00;;;;;;5055121;28;20025;-62
2022/03/15 09:25:05;;;;;;;14.45;9.23;;;12.20;67.00;;;;;;5056305;28;20029;-62
2022/03/15 09:27:30;;;;;;;16.15;9.98;;;11.80;66.80;;;;;;5056453;28;20025;-62
2022/03/15 09:29:57;;;;;;;19.05;10.45;;;11.70;67.50;;;;;;5056747;28;20032;-62
2022/03/15 09:32:24;;;;;;;19.30;10.82;;;11.50;68.30;;;;;;5056175;28;20386;-62
2022/03/15 09:34:50;;;;;;;15.18;9.93;;;11.50;69.40;;;;;;5055163;28;20029;-62
2022/03/15 09:37:15;;;;;;;17.70;10.15;;;11.60;69.20;;;;;;5055122;28;20479;-62
2022/03/15 09:39:41;;;;;;;17.33;10.65;;;11.70;68.50;;;;;;5056078;28;20572;-62
2022/03/15 09:42:09;;;;;;;16.15;10.55;;;11.90;68.60;;;;;;5056187;28;20376;-62
2022/03/15 09:44:37;;;;;;;17.33;10.60;;;12.40;66.50;;;;;;5054880;28;20036;-62
2022/03/15 09:47:08;;;;;;;15.52;10.27;;;12.90;64.80;;;;;;5054865;28;20167;-62
2022/03/15 09:49:37;;;;;;;16.48;9.85;;;12.90;63.20;;;;;;5055826;28;20025;-62
2022/03/15 09:52:07;;;;;;;;;;;13.00;63.30;;;;;;5055153;28;20033;-62
2022/03/15 09:54:33;;;;;;;24.33;9.95;;;13.20;62.00;;;;;;5055862;28;19905;-62
2022/03/15 09:56:59;;;;;;;17.17;10.65;;;13.40;60.70;;;;;;5055686;28;20158;-62
2022/03/15 09:59:27;;;;;;;17.88;10.48;;;13.50;60.50;;;;;;5054244;28;20031;-62
2022/03/15 10:01:54;;;;;;;13.25;9.20;;;13.80;59.80;;;;;;5055806;28;20484;-63
2022/03/15 10:04:22;;;;;;;15.18;9.60;;;14.10;58.80;;;;;;5055361;28;20037;-62
2022/03/15 10:06:48;;;;;;;14.95;9.55;;;14.60;57.20;;;;;;5055264;28;20080;-63
2022/03/15 10:09:14;;;;;;;15.98;9.73;;;14.90;55.20;;;;;;5055090;28;20370;-62
2022/03/15 10:11:41;;;;;;;15.32;9.60;;;15.30;54.80;;;;;;5055316;28;20035;-62
2022/03/15 10:14:08;;;;;;;17.88;9.80;;;15.80;53.30;;;;;;5054272;28;20079;-62
2022/03/15 10:16:41;;;;;;;15.48;10.63;;;16.30;51.30;;;;;;5055206;28;20024;-62
2022/03/15 10:19:12;;;;;;;15.05;9.95;;;16.50;49.70;;;;;;5054095;28;20029;-62
2022/03/15 10:21:52;;;;;;;17.35;10.80;;;16.30;49.80;;;;;;5055109;28;20025;-62
2022/03/15 10:24:23;;;;;;;15.80;10.23;;;16.40;50.00;;;;;;5053969;28;20457;-62
2022/03/15 10:26:55;;;;;;;20.38;10.13;;;16.70;49.60;;;;;;5054879;28;20089;-62
2022/03/15 10:29:22;;;;;;;12.38;9.75;;;16.80;48.70;;;;;;5054667;28;20104;-62
2022/03/15 10:31:48;;;;;;;15.45;9.90;;;17.20;47.80;;;;;;5054566;28;20029;-63
2022/03/15 10:34:16;;;;;;;16.58;9.90;;;17.40;46.90;;;;;;5054863;28;20083;-62
2022/03/15 10:36:44;;;;;;;13.23;9.15;;;17.50;46.50;;;;;;5054783;28;20032;-62
2022/03/15 10:39:11;;;;;;;12.10;8.50;;;17.30;46.60;;;;;;5053493;28;20029;-62
2022/03/15 10:41:45;;;;;;;14.80;8.40;;;16.60;47.10;;;;;;5053408;28;20036;-62
2022/03/15 10:44:16;;;;;;;14.82;8.30;;;16.50;47.90;;;;;;5054571;28;20070;-62
2022/03/15 10:46:42;;;;;;;11.35;8.57;;;17.20;47.60;;;;;;5054780;28;20033;-62
2022/03/15 10:49:07;;;;;;;12.65;8.77;;;16.90;47.10;;;;;;5054522;28;20032;-62
2022/03/15 10:51:36;;;;;;;13.70;8.90;;;16.00;48.40;;;;;;5054473;28;20025;-62
2022/03/15 10:54:05;;;;;;;18.37;9.33;;;16.00;48.90;;;;;;5054762;28;20028;-62
2022/03/15 10:56:31;;;;;;;9.95;7.55;;;16.20;48.30;;;;;;5054333;28;20036;-62
2022/03/15 10:59:03;;;;;;;12.60;8.68;;;15.90;49.30;;;;;;5052997;28;20025;-62
2022/03/15 11:01:35;;;;;;;15.50;8.10;;;15.80;49.90;;;;;;5053218;28;20032;-62
2022/03/15 11:04:04;;;;;;;15.18;8.88;;;15.30;50.10;;;;;;5054900;28;20032;-62
2022/03/15 11:06:38;;;;;;;16.00;8.65;;;15.00;51.50;;;;;;5054616;28;20029;-62
2022/03/15 11:09:23;;;;;;;16.65;8.27;;;14.60;52.50;;;;;;5054893;28;20044;-62
2022/03/15 11:11:53;;;;;;;14.90;8.55;;;14.60;53.10;;;;;;5054038;28;20477;-62
2022/03/15 11:14:39;;;;;;;18.48;8.65;;;14.60;53.40;;;;;;5054560;28;20021;-62
2022/03/15 11:17:16;;;;;;;15.80;8.50;;;14.80;53.40;;;;;;5054650;28;20025;-62
2022/03/15 11:19:53;;;;;;;12.95;8.18;;;14.80;53.20;;;;;;5054398;28;20492;-62
2022/03/15 11:22:34;;;;;;;14.55;8.88;;;14.90;54.00;;;;;;5053619;28;20033;-63
2022/03/15 11:25:08;;;;;;;13.43;8.05;;;15.10;53.40;;;;;;5053183;28;20037;-62
2022/03/15 11:27:40;;;;;;;15.98;8.57;;;15.10;53.00;;;;;;5053843;28;20063;-62
2022/03/15 11:30:14;;;;;;;11.63;7.18;;;15.00;52.90;;;;;;5052987;28;20074;-62
2022/03/15 11:32:40;;;;;;;15.27;7.10;;;14.80;53.10;;;;;;5054371;28;20061;-62
2022/03/15 11:35:08;;;;;;;9.98;7.32;;;14.70;53.20;;;;;;5054177;28;20029;-62
2022/03/15 11:37:35;;;;;;;12.55;6.82;;;14.70;53.40;;;;;;5054148;28;20021;-62
2022/03/15 11:40:04;;;;;;;8.45;6.38;;;14.70;53.30;;;;;;5053811;28;20409;-62
2022/03/15 11:42:32;;;;;;;17.17;7.15;;;14.70;53.30;;;;;;5052678;28;20473;-62
2022/03/15 11:45:16;;;;;;;9.13;6.13;;;14.70;53.40;;;;;;5054205;28;20029;-62
2022/03/15 11:48:03;;;;;;;7.88;5.70;;;14.80;52.60;;;;;;5052710;28;20021;-62
2022/03/15 11:50:43;;;;;;;8.77;5.63;;;14.90;52.70;;;;;;5054083;28;20377;-62
2022/03/15 11:53:20;;;;;;;7.47;5.30;;;15.00;52.80;;;;;;5052801;28;20044;-62
2022/03/15 11:55:55;;;;;;;10.25;5.85;;;15.20;52.20;;;;;;5053884;28;20032;-62
2022/03/15 11:58:28;;;;;;;9.23;5.45;;;15.80;51.10;;;;;;5053673;28;20036;-63
2022/03/15 12:00:57;;;;;;;8.45;5.40;;;17.00;48.90;;;;;;5053609;28;20025;-62
2022/03/15 12:03:23;;;;;;;7.50;5.68;;;18.30;46.10;;;;;;5053274;28;20036;-62
2022/03/15 12:05:54;;;;;;;8.25;5.63;;;19.00;44.20;;;;;;5053425;28;20068;-63
2022/03/15 12:08:26;;;;;;;9.18;5.07;;;19.60;42.50;;;;;;5053659;28;20059;-62
2022/03/15 12:11:04;;;;;;;11.15;5.68;;;20.20;41.20;;;;;;5052061;28;20029;-63
2022/03/15 12:13:36;;;;;;;6.57;4.90;;;20.80;40.10;;;;;;5052354;28;20029;-62
2022/03/15 12:16:11;;;;;;;11.10;4.85;;;20.20;39.60;;;;;;5052424;28;20404;-62
2022/03/15 12:19:00;;;;;;;7.15;5.00;;;20.10;39.50;;;;;;5051877;28;20028;-62
2022/03/15 12:21:26;;;;;;;6.30;4.68;;;18.80;41.70;;;;;;5053511;28;20070;-62
2022/03/15 12:26:38;;;;;;;10.15;5.32;;;18.70;42.60;;;;;;5057703;28;20522;-62
2022/03/15 12:29:14;;;;;;;9.77;5.43;;;17.80;43.00;;;;;;5056579;28;20029;-62
2022/03/15 12:31:43;;;;;;;5.95;4.65;;;17.40;44.50;;;;;;5058557;28;20044;-62
2022/03/15 12:34:12;;;;;;;6.43;5.05;;;17.40;44.90;;;;;;5059588;28;20040;-62
2022/03/15 12:36:48;;;;;;;6.75;4.60;;;17.10;45.30;;;;;;5058986;28;20029;-62
2022/03/15 12:39:17;;;;;;;7.10;5.22;;;17.20;45.70;;;;;;5060882;28;20024;-62
2022/03/15 12:41:45;;;;;;;7.55;4.90;;;17.20;45.70;;;;;;5059560;28;20588;-63
2022/03/15 12:44:10;;;;;;;6.03;4.35;;;16.90;46.30;;;;;;5058637;28;20083;-62
2022/03/15 12:46:41;;;;;;;6.78;4.18;;;17.00;46.60;;;;;;5058351;28;20033;-62
2022/03/15 12:49:15;;;;;;;9.38;4.88;;;16.70;47.10;;;;;;5057392;28;20407;-63
2022/03/15 12:51:43;;;;;;;8.45;4.40;;;16.50;47.80;;;;;;5055554;28;20114;-62